Tracer — PHAC — position and weather

sailwx.info

Track history (hours):
 
Tides and Currents Weather Stations Pressure Air Temp Water Temp Dewpoint Dewpoint Depression Visibility Wind Speed Wind Dir Waves Ship Positions

Tracer

Last reported at 2017-Oct-17 11:31 UTC. Time now 2017-Oct-17 15:35 UTC.
Position N 49°44' W 003°36'.

Length 101 m; beam 20 m.

Type: Cargo ship. MMSI: 245949000.

Date/timePositionNaut miles runAvg speedWind from/ knotsBaromVisibWave heightAir tempDewpointWater temp
2017-Oct-17 11:31N 49°44' W 003°36'013.9
2017-Oct-17 11:30N 49°44' W 003°36'814.4
2017-Oct-17 10:56N 49°48' W 003°25'714.5
2017-Oct-17 10:25N 49°52' W 003°15'614.2
2017-Oct-17 09:59N 49°55' W 003°07'713.9
2017-Oct-17 09:31N 49°58' W 002°58'713.0
2017-Oct-17 09:00N 49°60' W 002°48'102 9.6
2017-Oct-16 22:19N 50°27' W 000°14'3 9.8
2017-Oct-16 22:00N 50°28' W 000°10'5 9.6
2017-Oct-16 21:30N 50°29' W 000°02'13 9.6
2017-Oct-16 20:09N 50°33' E 000°17'210.2
2017-Oct-16 20:00N 50°33' E 000°20'510.2
2017-Oct-16 19:30N 50°35' E 000°27'5 9.6
2017-Oct-16 19:00N 50°36' E 000°34'510.2
2017-Oct-16 18:30N 50°40' E 000°40'510.8
2017-Oct-16 18:00N 50°43' E 000°47'511.0
2017-Oct-16 17:30N 50°47' E 000°54'611.8
2017-Oct-16 16:59N 50°50' E 001°01'1012.5
2017-Oct-16 16:10N 50°57' E 001°14'613.2
2017-Oct-16 15:43N 51°01' E 001°21'313.1
2017-Oct-16 15:30N 51°03' E 001°24'612.7
2017-Oct-16 15:00N 51°07' E 001°32'1211.9
2017-Oct-16 14:00N 51°14' E 001°47'611.4
2017-Oct-16 13:30N 51°19' E 001°52'611.1
2017-Oct-16 13:00N 51°24' E 001°57'510.9
2017-Oct-16 12:30N 51°24' E 002°06'713.3
2017-Oct-16 12:01N 51°21' E 002°16'611.7
2017-Oct-16 11:30N 51°22' E 002°25'612.0
2017-Oct-16 11:00N 51°23' E 002°34'611.9
2017-Oct-16 10:28N 51°24' E 002°44'511.2
2017-Oct-16 10:00N 51°25' E 002°53'713.5
2017-Oct-16 09:30N 51°25' E 003°03'612.6
2017-Oct-16 09:00N 51°25' E 003°13'612.6
2017-Oct-16 08:30N 51°25' E 003°24'612.5
2017-Oct-16 08:00N 51°26' E 003°33'5 9.2
2017-Oct-16 07:30N 51°27' E 003°40'2 3.0
2017-Oct-16 07:00N 51°27' E 003°43'0 0.0
2017-Oct-16 06:02N 51°27' E 003°43'0 0.0
2017-Oct-16 05:56N 51°27' E 003°43'0 0.0
2017-Oct-16 05:26N 51°27' E 003°43'0 0.0
2017-Oct-16 04:50N 51°27' E 003°43'0 0.0
2017-Oct-16 04:20N 51°27' E 003°43'0 0.0
2017-Oct-16 03:56N 51°27' E 003°43'0 0.0
2017-Oct-16 03:26N 51°27' E 003°43'0 0.0
2017-Oct-16 02:38N 51°27' E 003°43'0 0.0
2017-Oct-16 02:26N 51°27' E 003°43'0 0.0
2017-Oct-16 01:56N 51°27' E 003°43'0 0.0
2017-Oct-16 01:20N 51°27' E 003°43'0 0.0
2017-Oct-16 00:44N 51°27' E 003°43'0 0.0
2017-Oct-16 00:14N 51°27' E 003°43'0 0.0
2017-Oct-15 23:44N 51°27' E 003°43'0 0.0
2017-Oct-15 23:20N 51°27' E 003°43'0 0.0
2017-Oct-15 22:56N 51°27' E 003°43'0 0.0
2017-Oct-15 22:20N 51°27' E 003°43'0 0.0
2017-Oct-15 21:56N 51°27' E 003°43'0 0.0
2017-Oct-15 21:26N 51°27' E 003°43'0 0.0
2017-Oct-15 20:26N 51°27' E 003°43'0 0.0
2017-Oct-15 19:56N 51°27' E 003°43'0 0.0
2017-Oct-15 19:29N 51°27' E 003°43'0 0.0
2017-Oct-15 18:47N 51°27' E 003°43'0 0.0
2017-Oct-15 18:20N 51°27' E 003°43'0 0.0
2017-Oct-15 17:44N 51°27' E 003°43'0 0.0
2017-Oct-15 17:26N 51°27' E 003°43'0 0.0
2017-Oct-15 16:56N 51°27' E 003°43'0 0.0
2017-Oct-15 16:26N 51°27' E 003°43'0 0.0
2017-Oct-15 15:44N 51°27' E 003°43'0 0.0
2017-Oct-15 15:26N 51°27' E 003°43'0 0.0
2017-Oct-15 14:53N 51°27' E 003°43'0 0.0
2017-Oct-15 13:56N 51°27' E 003°43'0 0.0
2017-Oct-15 13:14N 51°27' E 003°43'0 0.0
2017-Oct-15 12:26N 51°27' E 003°43'0 0.0
2017-Oct-15 11:38N 51°27' E 003°43'0 0.0
2017-Oct-15 11:14N 51°27' E 003°43'0 0.0
2017-Oct-15 10:08N 51°27' E 003°43'0 0.0
2017-Oct-15 09:56N 51°27' E 003°43'0 0.0
2017-Oct-15 08:43N 51°27' E 003°43'0 0.0
2017-Oct-15 08:13N 51°27' E 003°43'0 0.0
2017-Oct-15 07:55N 51°27' E 003°43'0 0.0
2017-Oct-15 07:25N 51°27' E 003°43'0 0.0
2017-Oct-15 06:37N 51°27' E 003°43'0 0.0
2017-Oct-15 05:49N 51°27' E 003°43'0 0.0
2017-Oct-15 05:25N 51°27' E 003°43'0 0.0
2017-Oct-15 04:55N 51°27' E 003°43'0 0.0
2017-Oct-15 04:25N 51°27' E 003°43'0 0.0
2017-Oct-15 03:55N 51°27' E 003°43'0 0.0
2017-Oct-15 03:25N 51°27' E 003°43'0 0.0
2017-Oct-15 02:43N 51°27' E 003°43'0 0.0
2017-Oct-15 02:25N 51°27' E 003°43'0 0.0
2017-Oct-15 01:55N 51°27' E 003°43'0 0.0
2017-Oct-15 01:19N 51°27' E 003°43'0 0.0
2017-Oct-15 00:55N 51°27' E 003°43'0 0.0
2017-Oct-15 00:25N 51°27' E 003°43'0 0.0
2017-Oct-14 23:55N 51°27' E 003°43'0 0.0
2017-Oct-14 23:25N 51°27' E 003°43'0 0.0
2017-Oct-14 22:49N 51°27' E 003°43'0 0.0
2017-Oct-14 22:25N 51°27' E 003°43'0 0.0
2017-Oct-14 21:55N 51°27' E 003°43'0 0.0
2017-Oct-14 21:19N 51°27' E 003°43'0 0.0
2017-Oct-14 20:55N 51°27' E 003°43'0 0.0
2017-Oct-14 20:19N 51°27' E 003°43'0 0.0
2017-Oct-14 19:55N 51°27' E 003°43'0 0.0
2017-Oct-14 19:19N 51°27' E 003°43'0 0.0
2017-Oct-14 18:55N 51°27' E 003°43'0 0.0
2017-Oct-14 17:22N 51°27' E 003°43'0 0.0
2017-Oct-14 16:37N 51°27' E 003°43'0 0.0
2017-Oct-14 16:25N 51°27' E 003°43'0 0.0
2017-Oct-14 15:58N 51°27' E 003°43'0 0.0
2017-Oct-14 15:22N 51°27' E 003°43'0 0.0
2017-Oct-14 14:55N 51°27' E 003°43'0 0.0
2017-Oct-14 14:28N 51°27' E 003°43'0 0.0
2017-Oct-14 13:58N 51°27' E 003°43'0 0.0
2017-Oct-14 13:28N 51°27' E 003°43'0 0.0
2017-Oct-14 12:49N 51°27' E 003°43'0 0.0
2017-Oct-14 12:25N 51°27' E 003°43'0 0.0
2017-Oct-14 11:55N 51°27' E 003°43'0 0.0
2017-Oct-14 11:19N 51°27' E 003°43'0 0.0
2017-Oct-14 10:49N 51°27' E 003°43'0 0.0
2017-Oct-14 10:25N 51°27' E 003°43'0 0.0
2017-Oct-14 09:55N 51°27' E 003°43'0 0.0
2017-Oct-14 09:25N 51°27' E 003°43'0 0.0
2017-Oct-14 08:37N 51°27' E 003°43'0 0.0
2017-Oct-14 08:07N 51°27' E 003°43'0 0.0
2017-Oct-14 07:43N 51°27' E 003°43'0 0.0
2017-Oct-14 06:40N 51°27' E 003°43'0 0.0
2017-Oct-14 06:19N 51°27' E 003°43'0 0.0
2017-Oct-14 05:49N 51°27' E 003°43'0 0.0
2017-Oct-14 05:25N 51°27' E 003°43'0 0.0
2017-Oct-14 04:55N 51°27' E 003°43'0 0.0
2017-Oct-14 03:49N 51°27' E 003°43'0 0.0
2017-Oct-14 03:13N 51°27' E 003°43'0 0.0
2017-Oct-14 02:55N 51°27' E 003°43'0 0.0
2017-Oct-14 02:13N 51°27' E 003°43'0 0.0
2017-Oct-14 01:55N 51°27' E 003°43'0 0.0
2017-Oct-14 01:07N 51°27' E 003°43'0 0.0
2017-Oct-14 00:55N 51°27' E 003°43'0 0.0
2017-Oct-14 00:25N 51°27' E 003°43'0 0.0
2017-Oct-13 23:55N 51°27' E 003°43'0 0.0
2017-Oct-13 23:31N 51°27' E 003°43'0 0.0
2017-Oct-13 23:01N 51°27' E 003°43'0 0.0
2017-Oct-13 22:25N 51°27' E 003°43'0 0.0
2017-Oct-13 22:00N 51°27' E 003°43'0 0.0
2017-Oct-13 21:30N 51°27' E 003°43'0 0.0
2017-Oct-13 21:00N 51°27' E 003°43'0 0.0
2017-Oct-13 20:27N 51°27' E 003°43'0 0.0
2017-Oct-13 20:00N 51°27' E 003°43'0 0.0
2017-Oct-13 19:12N 51°27' E 003°43'0 0.0
2017-Oct-13 18:54N 51°27' E 003°43'0 0.0
2017-Oct-13 18:30N 51°27' E 003°43'0 0.0
2017-Oct-13 18:00N 51°27' E 003°43'0 0.0
2017-Oct-13 17:30N 51°27' E 003°43'0 0.0
2017-Oct-13 16:51N 51°27' E 003°43'0 0.0
2017-Oct-13 16:18N 51°27' E 003°43'0 0.0
2017-Oct-13 16:00N 51°27' E 003°43'0 0.0
2017-Oct-13 15:27N 51°27' E 003°43'0 0.0
2017-Oct-13 15:00N 51°27' E 003°43'0 0.0
2017-Oct-13 14:24N 51°27' E 003°43'0 0.0
2017-Oct-13 14:00N 51°27' E 003°43'0 0.0
2017-Oct-13 13:30N 51°27' E 003°43'0 0.0
2017-Oct-13 13:00N 51°27' E 003°43'0 0.0
2017-Oct-13 12:30N 51°27' E 003°43'0 0.0
2017-Oct-13 12:00N 51°27' E 003°43'0 0.0
2017-Oct-13 11:30N 51°27' E 003°43'0 0.0
2017-Oct-13 10:48N 51°27' E 003°43'0 0.0
2017-Oct-13 10:24N 51°27' E 003°43'0 0.0
2017-Oct-13 09:51N 51°27' E 003°43'0 0.0
2017-Oct-13 09:30N 51°27' E 003°43'0 0.0
2017-Oct-13 08:18N 51°27' E 003°43'0 0.0
2017-Oct-13 08:00N 51°27' E 003°43'0 0.0
2017-Oct-13 07:21N 51°27' E 003°43'0 0.0
2017-Oct-13 06:54N 51°27' E 003°43'0 0.0
2017-Oct-13 05:48N 51°27' E 003°43'0 0.0
2017-Oct-13 05:30N 51°27' E 003°43'0 0.0
2017-Oct-13 04:45N 51°27' E 003°43'0 0.0
2017-Oct-13 04:18N 51°27' E 003°43'0 0.0
2017-Oct-13 03:42N 51°27' E 003°43'0 0.0
2017-Oct-13 03:24N 51°27' E 003°43'0 0.0
2017-Oct-13 03:00N 51°27' E 003°43'0 0.0
2017-Oct-13 02:24N 51°27' E 003°43'0 0.0
2017-Oct-13 02:00N 51°27' E 003°43'0 0.0
2017-Oct-13 01:24N 51°27' E 003°43'0 0.0
2017-Oct-13 01:00N 51°27' E 003°43'0 0.0
2017-Oct-13 00:30N 51°27' E 003°43'0 0.0
2017-Oct-12 23:54N 51°27' E 003°43'0 0.0
2017-Oct-12 23:30N 51°27' E 003°43'0 0.0
2017-Oct-12 23:00N 51°27' E 003°43'0 0.0
2017-Oct-12 22:24N 51°27' E 003°43'0 0.0
2017-Oct-12 22:00N 51°27' E 003°43'0 0.0
2017-Oct-12 21:27N 51°27' E 003°43'0 0.0
2017-Oct-12 20:42N 51°27' E 003°43'0 0.0
2017-Oct-12 20:30N 51°27' E 003°43'0 0.0
2017-Oct-12 19:42N 51°27' E 003°43'0 0.0
2017-Oct-12 19:24N 51°27' E 003°43'0 0.0
2017-Oct-12 18:54N 51°27' E 003°43'0 0.0
2017-Oct-12 18:24N 51°27' E 003°43'0 0.0
2017-Oct-12 17:54N 51°27' E 003°43'0 0.0
2017-Oct-12 17:30N 51°27' E 003°43'0 0.0
2017-Oct-12 16:18N 51°27' E 003°43'0 0.0
2017-Oct-12 15:24N 51°27' E 003°43'0 0.0
2017-Oct-12 15:00N 51°27' E 003°43'0 0.0
2017-Oct-12 14:24N 51°27' E 003°43'0 0.0
2017-Oct-12 14:00N 51°27' E 003°43'0 0.0
2017-Oct-12 13:30N 51°27' E 003°43'0 0.0
2017-Oct-12 11:51N 51°27' E 003°43'0 0.0
2017-Oct-12 11:06N 51°27' E 003°43'0 0.0
2017-Oct-12 10:47N 51°27' E 003°43'0 0.0
2017-Oct-12 10:23N 51°27' E 003°43'0 0.0
2017-Oct-12 09:47N 51°27' E 003°43'0 0.0
2017-Oct-12 09:29N 51°27' E 003°43'0 0.0
2017-Oct-12 08:23N 51°27' E 003°43'0 0.0
2017-Oct-12 06:59N 51°27' E 003°43'0 0.0
2017-Oct-12 06:17N 51°27' E 003°43'0 0.0
2017-Oct-12 05:59N 51°27' E 003°43'0 0.0
2017-Oct-12 04:38N 51°27' E 003°43'0 0.0
2017-Oct-12 04:29N 51°27' E 003°43'0 0.0
2017-Oct-12 03:59N 51°27' E 003°43'0 0.0
2017-Oct-12 03:17N 51°27' E 003°43'0 0.0
2017-Oct-12 02:47N 51°27' E 003°43'0 0.0
2017-Oct-12 02:23N 51°27' E 003°43'0 0.0
2017-Oct-12 01:59N 51°27' E 003°43'0 0.0
2017-Oct-12 01:29N 51°27' E 003°43'0 0.0
2017-Oct-12 00:59N 51°27' E 003°43'0 0.0
2017-Oct-12 00:29N 51°27' E 003°43'0 0.0
2017-Oct-11 23:17N 51°27' E 003°43'0 0.0
2017-Oct-11 22:53N 51°27' E 003°43'0 0.0
2017-Oct-11 20:47N 51°27' E 003°43'0 0.0
2017-Oct-11 20:26N 51°27' E 003°43'0 0.0
2017-Oct-11 19:35N 51°27' E 003°43'0 0.0
2017-Oct-11 19:29N 51°27' E 003°43'0 0.0
2017-Oct-11 18:41N 51°27' E 003°43'0 0.0
2017-Oct-11 18:29N 51°27' E 003°43'0 0.0
2017-Oct-11 17:29N 51°27' E 003°43'0 0.0
2017-Oct-11 16:44N 51°27' E 003°43'0 0.0
2017-Oct-10 23:58N 51°27' E 003°43'0 0.0
2017-Oct-10 23:25N 51°27' E 003°43'0 0.0
2017-Oct-10 22:55N 51°27' E 003°43'0 0.0
2017-Oct-10 22:16N 51°27' E 003°43'0 0.0
2017-Oct-10 21:58N 51°27' E 003°43'0 0.0
2017-Oct-10 21:28N 51°27' E 003°43'0 0.0
2017-Oct-10 20:46N 51°27' E 003°43'0 0.0
2017-Oct-10 20:28N 51°27' E 003°43'0 0.0
2017-Oct-10 19:52N 51°27' E 003°43'0 0.0
2017-Oct-10 19:22N 51°27' E 003°43'0 0.0
2017-Oct-10 18:58N 51°27' E 003°43'0 0.0
2017-Oct-10 17:46N 51°27' E 003°43'0 0.0
2017-Oct-10 17:22N 51°27' E 003°43'0 0.0
2017-Oct-10 16:58N 51°27' E 003°43'0 0.0
2017-Oct-10 16:07N 51°27' E 003°43'0 0.0
2017-Oct-10 15:52N 51°27' E 003°43'0 0.0
2017-Oct-10 13:52N 51°27' E 003°43'0 0.0
2017-Oct-10 13:28N 51°27' E 003°43'0 0.0
2017-Oct-10 12:58N 51°27' E 003°43'0 0.0
2017-Oct-10 12:28N 51°27' E 003°43'0 0.0
2017-Oct-10 11:58N 51°27' E 003°43'0 0.0
2017-Oct-10 11:22N 51°27' E 003°43'0 0.0
2017-Oct-10 10:58N 51°27' E 003°43'0 0.0
2017-Oct-10 10:28N 51°27' E 003°43'0 0.0
2017-Oct-10 09:58N 51°27' E 003°43'0 0.0
2017-Oct-10 09:28N 51°27' E 003°43'0 0.0
2017-Oct-10 08:58N 51°27' E 003°43'0 0.0
2017-Oct-10 08:31N 51°27' E 003°43'0 0.9
2017-Oct-10 08:00N 51°27' E 003°42'4 7.2
2017-Oct-10 07:31N 51°26' E 003°37'510.9
2017-Oct-10 07:01N 51°25' E 003°28'612.3
2017-Oct-10 06:30N 51°24' E 003°18'713.8
2017-Oct-10 06:00N 51°24' E 003°07'714.2
2017-Oct-10 05:30N 51°23' E 002°56'713.2
2017-Oct-10 05:01N 51°22' E 002°46'710.1
2017-Oct-10 04:16N 51°22' E 002°34'310.3
2017-Oct-10 03:59N 51°22' E 002°29'611.6
2017-Oct-10 03:30N 51°19' E 002°21'611.7
2017-Oct-10 02:57N 51°16' E 002°12'611.8
2017-Oct-10 02:29N 51°13' E 002°04'613.3
2017-Oct-10 02:01N 51°10' E 001°56'714.8
2017-Oct-10 01:30N 51°06' E 001°46'714.8
2017-Oct-10 01:01N 51°01' E 001°38'714.1
2017-Oct-10 00:30N 50°56' E 001°29'6211.8
2017-Oct-09 19:13N 50°20' E 000°10'611.9
2017-Oct-09 18:45N 50°18' E 000°01'  
Track history (hours):
 
Tides and Currents Weather Stations Pressure Air Temp Water Temp Dewpoint Dewpoint Depression Visibility Wind Speed Wind Dir Waves Ship Positions

Tracer

Last reported at 2017-Oct-17 11:31 UTC. Time now 2017-Oct-17 15:35 UTC.
Position N 49°44' W 003°36'.

Length 101 m; beam 20 m.

Type: Cargo ship. MMSI: 245949000.

Date/timePositionNaut miles runAvg speedWind from/ knotsBaromVisibWave heightAir tempDewpointWater temp
2017-Oct-17 11:31N 49°44' W 003°36'013.9
2017-Oct-17 11:30N 49°44' W 003°36'814.4
2017-Oct-17 10:56N 49°48' W 003°25'714.5
2017-Oct-17 10:25N 49°52' W 003°15'614.2
2017-Oct-17 09:59N 49°55' W 003°07'713.9
2017-Oct-17 09:31N 49°58' W 002°58'713.0
2017-Oct-17 09:00N 49°60' W 002°48'102 9.6
2017-Oct-16 22:19N 50°27' W 000°14'3 9.8
2017-Oct-16 22:00N 50°28' W 000°10'5 9.6
2017-Oct-16 21:30N 50°29' W 000°02'13 9.6
2017-Oct-16 20:09N 50°33' E 000°17'210.2
2017-Oct-16 20:00N 50°33' E 000°20'510.2
2017-Oct-16 19:30N 50°35' E 000°27'5 9.6
2017-Oct-16 19:00N 50°36' E 000°34'510.2
2017-Oct-16 18:30N 50°40' E 000°40'510.8
2017-Oct-16 18:00N 50°43' E 000°47'511.0
2017-Oct-16 17:30N 50°47' E 000°54'611.8
2017-Oct-16 16:59N 50°50' E 001°01'1012.5
2017-Oct-16 16:10N 50°57' E 001°14'613.2
2017-Oct-16 15:43N 51°01' E 001°21'313.1
2017-Oct-16 15:30N 51°03' E 001°24'612.7
2017-Oct-16 15:00N 51°07' E 001°32'1211.9
2017-Oct-16 14:00N 51°14' E 001°47'611.4
2017-Oct-16 13:30N 51°19' E 001°52'611.1
2017-Oct-16 13:00N 51°24' E 001°57'510.9
2017-Oct-16 12:30N 51°24' E 002°06'713.3
2017-Oct-16 12:01N 51°21' E 002°16'611.7
2017-Oct-16 11:30N 51°22' E 002°25'612.0
2017-Oct-16 11:00N 51°23' E 002°34'611.9
2017-Oct-16 10:28N 51°24' E 002°44'511.2
2017-Oct-16 10:00N 51°25' E 002°53'713.5
2017-Oct-16 09:30N 51°25' E 003°03'612.6
2017-Oct-16 09:00N 51°25' E 003°13'612.6
2017-Oct-16 08:30N 51°25' E 003°24'612.5
2017-Oct-16 08:00N 51°26' E 003°33'5 9.2
2017-Oct-16 07:30N 51°27' E 003°40'2 3.0
2017-Oct-16 07:00N 51°27' E 003°43'0 0.0
2017-Oct-16 06:02N 51°27' E 003°43'0 0.0
2017-Oct-16 05:56N 51°27' E 003°43'0 0.0
2017-Oct-16 05:26N 51°27' E 003°43'0 0.0
2017-Oct-16 04:50N 51°27' E 003°43'0 0.0
2017-Oct-16 04:20N 51°27' E 003°43'0 0.0
2017-Oct-16 03:56N 51°27' E 003°43'0 0.0
2017-Oct-16 03:26N 51°27' E 003°43'0 0.0
2017-Oct-16 02:38N 51°27' E 003°43'0 0.0
2017-Oct-16 02:26N 51°27' E 003°43'0 0.0
2017-Oct-16 01:56N 51°27' E 003°43'0 0.0
2017-Oct-16 01:20N 51°27' E 003°43'0 0.0
2017-Oct-16 00:44N 51°27' E 003°43'0 0.0
2017-Oct-16 00:14N 51°27' E 003°43'0 0.0
2017-Oct-15 23:44N 51°27' E 003°43'0 0.0
2017-Oct-15 23:20N 51°27' E 003°43'0 0.0
2017-Oct-15 22:56N 51°27' E 003°43'0 0.0
2017-Oct-15 22:20N 51°27' E 003°43'0 0.0
2017-Oct-15 21:56N 51°27' E 003°43'0 0.0
2017-Oct-15 21:26N 51°27' E 003°43'0 0.0
2017-Oct-15 20:26N 51°27' E 003°43'0 0.0
2017-Oct-15 19:56N 51°27' E 003°43'0 0.0
2017-Oct-15 19:29N 51°27' E 003°43'0 0.0
2017-Oct-15 18:47N 51°27' E 003°43'0 0.0
2017-Oct-15 18:20N 51°27' E 003°43'0 0.0
2017-Oct-15 17:44N 51°27' E 003°43'0 0.0
2017-Oct-15 17:26N 51°27' E 003°43'0 0.0
2017-Oct-15 16:56N 51°27' E 003°43'0 0.0
2017-Oct-15 16:26N 51°27' E 003°43'0 0.0
2017-Oct-15 15:44N 51°27' E 003°43'0 0.0
2017-Oct-15 15:26N 51°27' E 003°43'0 0.0
2017-Oct-15 14:53N 51°27' E 003°43'0 0.0
2017-Oct-15 13:56N 51°27' E 003°43'0 0.0
2017-Oct-15 13:14N 51°27' E 003°43'0 0.0
2017-Oct-15 12:26N 51°27' E 003°43'0 0.0
2017-Oct-15 11:38N 51°27' E 003°43'0 0.0
2017-Oct-15 11:14N 51°27' E 003°43'0 0.0
2017-Oct-15 10:08N 51°27' E 003°43'0 0.0
2017-Oct-15 09:56N 51°27' E 003°43'0 0.0
2017-Oct-15 08:43N 51°27' E 003°43'0 0.0
2017-Oct-15 08:13N 51°27' E 003°43'0 0.0
2017-Oct-15 07:55N 51°27' E 003°43'0 0.0
2017-Oct-15 07:25N 51°27' E 003°43'0 0.0
2017-Oct-15 06:37N 51°27' E 003°43'0 0.0
2017-Oct-15 05:49N 51°27' E 003°43'0 0.0
2017-Oct-15 05:25N 51°27' E 003°43'0 0.0
2017-Oct-15 04:55N 51°27' E 003°43'0 0.0
2017-Oct-15 04:25N 51°27' E 003°43'0 0.0
2017-Oct-15 03:55N 51°27' E 003°43'0 0.0
2017-Oct-15 03:25N 51°27' E 003°43'0 0.0
2017-Oct-15 02:43N 51°27' E 003°43'0 0.0
2017-Oct-15 02:25N 51°27' E 003°43'0 0.0
2017-Oct-15 01:55N 51°27' E 003°43'0 0.0
2017-Oct-15 01:19N 51°27' E 003°43'0 0.0
2017-Oct-15 00:55N 51°27' E 003°43'0 0.0
2017-Oct-15 00:25N 51°27' E 003°43'0 0.0
2017-Oct-14 23:55N 51°27' E 003°43'0 0.0
2017-Oct-14 23:25N 51°27' E 003°43'0 0.0
2017-Oct-14 22:49N 51°27' E 003°43'0 0.0
2017-Oct-14 22:25N 51°27' E 003°43'0 0.0
2017-Oct-14 21:55N 51°27' E 003°43'0 0.0
2017-Oct-14 21:19N 51°27' E 003°43'0 0.0
2017-Oct-14 20:55N 51°27' E 003°43'0 0.0
2017-Oct-14 20:19N 51°27' E 003°43'0 0.0
2017-Oct-14 19:55N 51°27' E 003°43'0 0.0
2017-Oct-14 19:19N 51°27' E 003°43'0 0.0
2017-Oct-14 18:55N 51°27' E 003°43'0 0.0
2017-Oct-14 17:22N 51°27' E 003°43'0 0.0
2017-Oct-14 16:37N 51°27' E 003°43'0 0.0
2017-Oct-14 16:25N 51°27' E 003°43'0 0.0
2017-Oct-14 15:58N 51°27' E 003°43'0 0.0
2017-Oct-14 15:22N 51°27' E 003°43'0 0.0
2017-Oct-14 14:55N 51°27' E 003°43'0 0.0
2017-Oct-14 14:28N 51°27' E 003°43'0 0.0
2017-Oct-14 13:58N 51°27' E 003°43'0 0.0
2017-Oct-14 13:28N 51°27' E 003°43'0 0.0
2017-Oct-14 12:49N 51°27' E 003°43'0 0.0
2017-Oct-14 12:25N 51°27' E 003°43'0 0.0
2017-Oct-14 11:55N 51°27' E 003°43'0 0.0
2017-Oct-14 11:19N 51°27' E 003°43'0 0.0
2017-Oct-14 10:49N 51°27' E 003°43'0 0.0
2017-Oct-14 10:25N 51°27' E 003°43'0 0.0
2017-Oct-14 09:55N 51°27' E 003°43'0 0.0
2017-Oct-14 09:25N 51°27' E 003°43'0 0.0
2017-Oct-14 08:37N 51°27' E 003°43'0 0.0
2017-Oct-14 08:07N 51°27' E 003°43'0 0.0
2017-Oct-14 07:43N 51°27' E 003°43'0 0.0
2017-Oct-14 06:40N 51°27' E 003°43'0 0.0
2017-Oct-14 06:19N 51°27' E 003°43'0 0.0
2017-Oct-14 05:49N 51°27' E 003°43'0 0.0
2017-Oct-14 05:25N 51°27' E 003°43'0 0.0
2017-Oct-14 04:55N 51°27' E 003°43'0 0.0
2017-Oct-14 03:49N 51°27' E 003°43'0 0.0
2017-Oct-14 03:13N 51°27' E 003°43'0 0.0
2017-Oct-14 02:55N 51°27' E 003°43'0 0.0
2017-Oct-14 02:13N 51°27' E 003°43'0 0.0
2017-Oct-14 01:55N 51°27' E 003°43'0 0.0
2017-Oct-14 01:07N 51°27' E 003°43'0 0.0
2017-Oct-14 00:55N 51°27' E 003°43'0 0.0
2017-Oct-14 00:25N 51°27' E 003°43'0 0.0
2017-Oct-13 23:55N 51°27' E 003°43'0 0.0
2017-Oct-13 23:31N 51°27' E 003°43'0 0.0
2017-Oct-13 23:01N 51°27' E 003°43'0 0.0
2017-Oct-13 22:25N 51°27' E 003°43'0 0.0
2017-Oct-13 22:00N 51°27' E 003°43'0 0.0
2017-Oct-13 21:30N 51°27' E 003°43'0 0.0
2017-Oct-13 21:00N 51°27' E 003°43'0 0.0
2017-Oct-13 20:27N 51°27' E 003°43'0 0.0
2017-Oct-13 20:00N 51°27' E 003°43'0 0.0
2017-Oct-13 19:12N 51°27' E 003°43'0 0.0
2017-Oct-13 18:54N 51°27' E 003°43'0 0.0
2017-Oct-13 18:30N 51°27' E 003°43'0 0.0
2017-Oct-13 18:00N 51°27' E 003°43'0 0.0
2017-Oct-13 17:30N 51°27' E 003°43'0 0.0
2017-Oct-13 16:51N 51°27' E 003°43'0 0.0
2017-Oct-13 16:18N 51°27' E 003°43'0 0.0
2017-Oct-13 16:00N 51°27' E 003°43'0 0.0
2017-Oct-13 15:27N 51°27' E 003°43'0 0.0
2017-Oct-13 15:00N 51°27' E 003°43'0 0.0
2017-Oct-13 14:24N 51°27' E 003°43'0 0.0
2017-Oct-13 14:00N 51°27' E 003°43'0 0.0
2017-Oct-13 13:30N 51°27' E 003°43'0 0.0
2017-Oct-13 13:00N 51°27' E 003°43'0 0.0
2017-Oct-13 12:30N 51°27' E 003°43'0 0.0
2017-Oct-13 12:00N 51°27' E 003°43'0 0.0
2017-Oct-13 11:30N 51°27' E 003°43'0 0.0
2017-Oct-13 10:48N 51°27' E 003°43'0 0.0
2017-Oct-13 10:24N 51°27' E 003°43'0 0.0
2017-Oct-13 09:51N 51°27' E 003°43'0 0.0
2017-Oct-13 09:30N 51°27' E 003°43'0 0.0
2017-Oct-13 08:18N 51°27' E 003°43'0 0.0
2017-Oct-13 08:00N 51°27' E 003°43'0 0.0
2017-Oct-13 07:21N 51°27' E 003°43'0 0.0
2017-Oct-13 06:54N 51°27' E 003°43'0 0.0
2017-Oct-13 05:48N 51°27' E 003°43'0 0.0
2017-Oct-13 05:30N 51°27' E 003°43'0 0.0
2017-Oct-13 04:45N 51°27' E 003°43'0 0.0
2017-Oct-13 04:18N 51°27' E 003°43'0 0.0
2017-Oct-13 03:42N 51°27' E 003°43'0 0.0
2017-Oct-13 03:24N 51°27' E 003°43'0 0.0
2017-Oct-13 03:00N 51°27' E 003°43'0 0.0
2017-Oct-13 02:24N 51°27' E 003°43'0 0.0
2017-Oct-13 02:00N 51°27' E 003°43'0 0.0
2017-Oct-13 01:24N 51°27' E 003°43'0 0.0
2017-Oct-13 01:00N 51°27' E 003°43'0 0.0
2017-Oct-13 00:30N 51°27' E 003°43'0 0.0
2017-Oct-12 23:54N 51°27' E 003°43'0 0.0
2017-Oct-12 23:30N 51°27' E 003°43'0 0.0
2017-Oct-12 23:00N 51°27' E 003°43'0 0.0
2017-Oct-12 22:24N 51°27' E 003°43'0 0.0
2017-Oct-12 22:00N 51°27' E 003°43'0 0.0
2017-Oct-12 21:27N 51°27' E 003°43'0 0.0
2017-Oct-12 20:42N 51°27' E 003°43'0 0.0
2017-Oct-12 20:30N 51°27' E 003°43'0 0.0
2017-Oct-12 19:42N 51°27' E 003°43'0 0.0
2017-Oct-12 19:24N 51°27' E 003°43'0 0.0
2017-Oct-12 18:54N 51°27' E 003°43'0 0.0
2017-Oct-12 18:24N 51°27' E 003°43'0 0.0
2017-Oct-12 17:54N 51°27' E 003°43'0 0.0
2017-Oct-12 17:30N 51°27' E 003°43'0 0.0
2017-Oct-12 16:18N 51°27' E 003°43'0 0.0
2017-Oct-12 15:24N 51°27' E 003°43'0 0.0
2017-Oct-12 15:00N 51°27' E 003°43'0 0.0
2017-Oct-12 14:24N 51°27' E 003°43'0 0.0
2017-Oct-12 14:00N 51°27' E 003°43'0 0.0
2017-Oct-12 13:30N 51°27' E 003°43'0 0.0
2017-Oct-12 11:51N 51°27' E 003°43'0 0.0
2017-Oct-12 11:06N 51°27' E 003°43'0 0.0
2017-Oct-12 10:47N 51°27' E 003°43'0 0.0
2017-Oct-12 10:23N 51°27' E 003°43'0 0.0
2017-Oct-12 09:47N 51°27' E 003°43'0 0.0
2017-Oct-12 09:29N 51°27' E 003°43'0 0.0
2017-Oct-12 08:23N 51°27' E 003°43'0 0.0
2017-Oct-12 06:59N 51°27' E 003°43'0 0.0
2017-Oct-12 06:17N 51°27' E 003°43'0 0.0
2017-Oct-12 05:59N 51°27' E 003°43'0 0.0
2017-Oct-12 04:38N 51°27' E 003°43'0 0.0
2017-Oct-12 04:29N 51°27' E 003°43'0 0.0
2017-Oct-12 03:59N 51°27' E 003°43'0 0.0
2017-Oct-12 03:17N 51°27' E 003°43'0 0.0
2017-Oct-12 02:47N 51°27' E 003°43'0 0.0
2017-Oct-12 02:23N 51°27' E 003°43'0 0.0
2017-Oct-12 01:59N 51°27' E 003°43'0 0.0
2017-Oct-12 01:29N 51°27' E 003°43'0 0.0
2017-Oct-12 00:59N 51°27' E 003°43'0 0.0
2017-Oct-12 00:29N 51°27' E 003°43'0 0.0
2017-Oct-11 23:17N 51°27' E 003°43'0 0.0
2017-Oct-11 22:53N 51°27' E 003°43'0 0.0
2017-Oct-11 20:47N 51°27' E 003°43'0 0.0
2017-Oct-11 20:26N 51°27' E 003°43'0 0.0
2017-Oct-11 19:35N 51°27' E 003°43'0 0.0
2017-Oct-11 19:29N 51°27' E 003°43'0 0.0
2017-Oct-11 18:41N 51°27' E 003°43'0 0.0
2017-Oct-11 18:29N 51°27' E 003°43'0 0.0
2017-Oct-11 17:29N 51°27' E 003°43'0 0.0
2017-Oct-11 16:44N 51°27' E 003°43'0 0.0
2017-Oct-10 23:58N 51°27' E 003°43'0 0.0
2017-Oct-10 23:25N 51°27' E 003°43'0 0.0
2017-Oct-10 22:55N 51°27' E 003°43'0 0.0
2017-Oct-10 22:16N 51°27' E 003°43'0 0.0
2017-Oct-10 21:58N 51°27' E 003°43'0 0.0
2017-Oct-10 21:28N 51°27' E 003°43'0 0.0
2017-Oct-10 20:46N 51°27' E 003°43'0 0.0
2017-Oct-10 20:28N 51°27' E 003°43'0 0.0
2017-Oct-10 19:52N 51°27' E 003°43'0 0.0
2017-Oct-10 19:22N 51°27' E 003°43'0 0.0
2017-Oct-10 18:58N 51°27' E 003°43'0 0.0
2017-Oct-10 17:46N 51°27' E 003°43'0 0.0
2017-Oct-10 17:22N 51°27' E 003°43'0 0.0
2017-Oct-10 16:58N 51°27' E 003°43'0 0.0
2017-Oct-10 16:07N 51°27' E 003°43'0 0.0
2017-Oct-10 15:52N 51°27' E 003°43'0 0.0
2017-Oct-10 13:52N 51°27' E 003°43'0 0.0
2017-Oct-10 13:28N 51°27' E 003°43'0 0.0
2017-Oct-10 12:58N 51°27' E 003°43'0 0.0
2017-Oct-10 12:28N 51°27' E 003°43'0 0.0
2017-Oct-10 11:58N 51°27' E 003°43'0 0.0
2017-Oct-10 11:22N 51°27' E 003°43'0 0.0
2017-Oct-10 10:58N 51°27' E 003°43'0 0.0
2017-Oct-10 10:28N 51°27' E 003°43'0 0.0
2017-Oct-10 09:58N 51°27' E 003°43'0 0.0
2017-Oct-10 09:28N 51°27' E 003°43'0 0.0
2017-Oct-10 08:58N 51°27' E 003°43'0 0.0
2017-Oct-10 08:31N 51°27' E 003°43'0 0.9
2017-Oct-10 08:00N 51°27' E 003°42'4 7.2
2017-Oct-10 07:31N 51°26' E 003°37'510.9
2017-Oct-10 07:01N 51°25' E 003°28'612.3
2017-Oct-10 06:30N 51°24' E 003°18'713.8
2017-Oct-10 06:00N 51°24' E 003°07'714.2
2017-Oct-10 05:30N 51°23' E 002°56'713.2
2017-Oct-10 05:01N 51°22' E 002°46'710.1
2017-Oct-10 04:16N 51°22' E 002°34'310.3
2017-Oct-10 03:59N 51°22' E 002°29'611.6
2017-Oct-10 03:30N 51°19' E 002°21'611.7
2017-Oct-10 02:57N 51°16' E 002°12'611.8
2017-Oct-10 02:29N 51°13' E 002°04'613.3
2017-Oct-10 02:01N 51°10' E 001°56'714.8
2017-Oct-10 01:30N 51°06' E 001°46'714.8
2017-Oct-10 01:01N 51°01' E 001°38'714.1
2017-Oct-10 00:30N 50°56' E 001°29'6211.8
2017-Oct-09 19:13N 50°20' E 000°10'611.9
2017-Oct-09 18:45N 50°18' E 000°01'  

Dump ship's entire track history